sensor_id;sensor_type;location;lat;lon;timestamp;temperature;humidity
9790;DHT22;4934;50.852;8.098;2023-04-10T00:00:29;0.80;99.90
9790;DHT22;4934;50.852;8.098;2023-04-10T00:02:58;0.80;99.90
9790;DHT22;4934;50.852;8.098;2023-04-10T00:05:25;0.80;99.90
9790;DHT22;4934;50.852;8.098;2023-04-10T00:07:51;0.80;99.90
9790;DHT22;4934;50.852;8.098;2023-04-10T00:10:18;0.70;99.90
9790;DHT22;4934;50.852;8.098;2023-04-10T00:12:43;0.70;99.90
9790;DHT22;4934;50.852;8.098;2023-04-10T00:15:09;0.70;99.90
9790;DHT22;4934;50.852;8.098;2023-04-10T00:17:35;0.80;99.90
9790;DHT22;4934;50.852;8.098;2023-04-10T00:20:01;0.80;99.90
9790;DHT22;4934;50.852;8.098;2023-04-10T00:22:26;1.00;99.90
9790;DHT22;4934;50.852;8.098;2023-04-10T00:24:52;1.00;99.90
9790;DHT22;4934;50.852;8.098;2023-04-10T00:27:18;0.90;99.90
9790;DHT22;4934;50.852;8.098;2023-04-10T00:29:43;0.90;99.90
9790;DHT22;4934;50.852;8.098;2023-04-10T00:32:09;0.80;99.90
9790;DHT22;4934;50.852;8.098;2023-04-10T00:34:35;0.70;99.90
9790;DHT22;4934;50.852;8.098;2023-04-10T00:37:00;0.70;99.90
9790;DHT22;4934;50.852;8.098;2023-04-10T00:39:26;0.70;99.90
9790;DHT22;4934;50.852;8.098;2023-04-10T00:41:51;0.60;99.90
9790;DHT22;4934;50.852;8.098;2023-04-10T00:44:17;0.60;99.90
9790;DHT22;4934;50.852;8.098;2023-04-10T00:46:43;0.60;99.90
9790;DHT22;4934;50.852;8.098;2023-04-10T00:49:08;0.60;99.90
9790;DHT22;4934;50.852;8.098;2023-04-10T00:51:36;0.50;99.90
9790;DHT22;4934;50.852;8.098;2023-04-10T00:54:02;0.50;99.90
9790;DHT22;4934;50.852;8.098;2023-04-10T00:56:29;0.50;99.90
9790;DHT22;4934;50.852;8.098;2023-04-10T00:58:56;0.40;99.90
9790;DHT22;4934;50.852;8.098;2023-04-10T01:01:22;0.40;99.90
9790;DHT22;4934;50.852;8.098;2023-04-10T01:03:47;0.40;99.90
9790;DHT22;4934;50.852;8.098;2023-04-10T01:11:54;0.40;99.90
9790;DHT22;4934;50.852;8.098;2023-04-10T01:17:50;0.40;99.90
9790;DHT22;4934;50.852;8.098;2023-04-10T01:20:28;0.40;99.90
9790;DHT22;4934;50.852;8.098;2023-04-10T01:30:57;0.30;99.90
9790;DHT22;4934;50.852;8.098;2023-04-10T01:33:27;0.30;99.90
9790;DHT22;4934;50.852;8.098;2023-04-10T01:35:55;0.30;99.90
9790;DHT22;4934;50.852;8.098;2023-04-10T01:38:23;0.30;99.90
9790;DHT22;4934;50.852;8.098;2023-04-10T01:40:52;0.30;99.90
9790;DHT22;4934;50.852;8.098;2023-04-10T01:43:20;0.50;99.90
9790;DHT22;4934;50.852;8.098;2023-04-10T01:45:47;0.50;99.90
9790;DHT22;4934;50.852;8.098;2023-04-10T01:48:15;0.50;99.90
9790;DHT22;4934;50.852;8.098;2023-04-10T01:50:44;0.40;99.90
9790;DHT22;4934;50.852;8.098;2023-04-10T01:53:10;0.40;99.90
9790;DHT22;4934;50.852;8.098;2023-04-10T01:55:36;0.40;99.90
9790;DHT22;4934;50.852;8.098;2023-04-10T01:58:02;0.40;99.90
9790;DHT22;4934;50.852;8.098;2023-04-10T02:00:29;0.40;99.90
9790;DHT22;4934;50.852;8.098;2023-04-10T02:02:55;0.30;99.90
9790;DHT22;4934;50.852;8.098;2023-04-10T02:05:26;0.30;99.90
9790;DHT22;4934;50.852;8.098;2023-04-10T02:08:03;0.30;99.90
9790;DHT22;4934;50.852;8.098;2023-04-10T02:10:36;0.30;99.90
9790;DHT22;4934;50.852;8.098;2023-04-10T02:13:06;0.30;99.90
9790;DHT22;4934;50.852;8.098;2023-04-10T02:15:34;0.30;99.90
9790;DHT22;4934;50.852;8.098;2023-04-10T02:18:01;0.30;99.90
9790;DHT22;4934;50.852;8.098;2023-04-10T02:20:29;0.30;99.90
9790;DHT22;4934;50.852;8.098;2023-04-10T02:22:57;0.30;99.90
9790;DHT22;4934;50.852;8.098;2023-04-10T02:25:30;0.30;99.90
9790;DHT22;4934;50.852;8.098;2023-04-10T02:27:56;0.30;99.90
9790;DHT22;4934;50.852;8.098;2023-04-10T02:30:21;0.30;99.90
9790;DHT22;4934;50.852;8.098;2023-04-10T02:32:49;0.30;99.90
9790;DHT22;4934;50.852;8.098;2023-04-10T02:35:14;0.30;99.90
9790;DHT22;4934;50.852;8.098;2023-04-10T02:37:40;0.30;99.90
9790;DHT22;4934;50.852;8.098;2023-04-10T02:40:07;0.30;99.90
9790;DHT22;4934;50.852;8.098;2023-04-10T02:42:33;0.30;99.90
9790;DHT22;4934;50.852;8.098;2023-04-10T02:44:59;0.30;99.90
9790;DHT22;4934;50.852;8.098;2023-04-10T02:47:24;0.30;99.90
9790;DHT22;4934;50.852;8.098;2023-04-10T02:49:50;0.30;99.90
9790;DHT22;4934;50.852;8.098;2023-04-10T02:52:15;0.40;99.90
9790;DHT22;4934;50.852;8.098;2023-04-10T02:54:41;0.40;99.90
9790;DHT22;4934;50.852;8.098;2023-04-10T02:57:07;0.40;99.90
9790;DHT22;4934;50.852;8.098;2023-04-10T02:59:32;0.30;99.90
9790;DHT22;4934;50.852;8.098;2023-04-10T03:01:58;0.40;99.90
9790;DHT22;4934;50.852;8.098;2023-04-10T03:04:24;0.40;99.90
9790;DHT22;4934;50.852;8.098;2023-04-10T03:06:49;0.40;99.90
9790;DHT22;4934;50.852;8.098;2023-04-10T03:09:15;0.40;99.90
9790;DHT22;4934;50.852;8.098;2023-04-10T03:11:41;0.40;99.90
9790;DHT22;4934;50.852;8.098;2023-04-10T03:14:07;0.50;99.90
9790;DHT22;4934;50.852;8.098;2023-04-10T03:16:34;0.50;99.90
9790;DHT22;4934;50.852;8.098;2023-04-10T03:18:59;0.50;99.90
9790;DHT22;4934;50.852;8.098;2023-04-10T03:21:25;0.50;99.90
9790;DHT22;4934;50.852;8.098;2023-04-10T03:23:51;0.50;99.90
9790;DHT22;4934;50.852;8.098;2023-04-10T03:26:17;0.50;99.90
9790;DHT22;4934;50.852;8.098;2023-04-10T03:28:43;0.50;99.90
9790;DHT22;4934;50.852;8.098;2023-04-10T03:31:09;0.50;99.90
9790;DHT22;4934;50.852;8.098;2023-04-10T03:33:36;0.50;99.90
9790;DHT22;4934;50.852;8.098;2023-04-10T03:36:03;0.60;99.90
9790;DHT22;4934;50.852;8.098;2023-04-10T03:38:29;0.60;99.90
9790;DHT22;4934;50.852;8.098;2023-04-10T03:40:54;0.60;99.90
9790;DHT22;4934;50.852;8.098;2023-04-10T03:43:20;0.60;99.90
9790;DHT22;4934;50.852;8.098;2023-04-10T03:45:46;0.60;99.90
9790;DHT22;4934;50.852;8.098;2023-04-10T03:48:12;0.50;99.90
9790;DHT22;4934;50.852;8.098;2023-04-10T03:50:37;0.60;99.90
9790;DHT22;4934;50.852;8.098;2023-04-10T03:53:03;0.60;99.90
9790;DHT22;4934;50.852;8.098;2023-04-10T03:55:29;0.60;99.90
9790;DHT22;4934;50.852;8.098;2023-04-10T03:57:55;0.60;99.90
9790;DHT22;4934;50.852;8.098;2023-04-10T04:00:20;0.70;99.90
9790;DHT22;4934;50.852;8.098;2023-04-10T04:02:47;0.70;99.90
9790;DHT22;4934;50.852;8.098;2023-04-10T04:05:14;0.80;99.90
9790;DHT22;4934;50.852;8.098;2023-04-10T04:07:41;0.80;99.90
9790;DHT22;4934;50.852;8.098;2023-04-10T04:10:06;1.00;99.90
9790;DHT22;4934;50.852;8.098;2023-04-10T04:12:32;1.10;99.90
9790;DHT22;4934;50.852;8.098;2023-04-10T04:14:58;1.20;99.90
9790;DHT22;4934;50.852;8.098;2023-04-10T04:17:23;1.40;99.90
9790;DHT22;4934;50.852;8.098;2023-04-10T04:19:49;1.50;99.90
9790;DHT22;4934;50.852;8.098;2023-04-10T04:22:15;1.60;99.90
9790;DHT22;4934;50.852;8.098;2023-04-10T04:24:40;1.70;99.90
9790;DHT22;4934;50.852;8.098;2023-04-10T04:27:08;1.70;99.90
9790;DHT22;4934;50.852;8.098;2023-04-10T04:29:34;1.80;99.90
9790;DHT22;4934;50.852;8.098;2023-04-10T04:32:00;1.90;99.90
9790;DHT22;4934;50.852;8.098;2023-04-10T04:34:25;1.90;99.90
9790;DHT22;4934;50.852;8.098;2023-04-10T04:36:51;2.00;99.90
9790;DHT22;4934;50.852;8.098;2023-04-10T04:39:17;2.10;99.90
9790;DHT22;4934;50.852;8.098;2023-04-10T04:41:42;2.20;99.90
9790;DHT22;4934;50.852;8.098;2023-04-10T04:44:08;2.30;99.90
9790;DHT22;4934;50.852;8.098;2023-04-10T04:46:34;2.30;99.90
9790;DHT22;4934;50.852;8.098;2023-04-10T04:49:03;2.40;99.90
9790;DHT22;4934;50.852;8.098;2023-04-10T04:51:31;2.40;99.90
9790;DHT22;4934;50.852;8.098;2023-04-10T04:53:57;2.50;99.90
9790;DHT22;4934;50.852;8.098;2023-04-10T04:56:22;2.70;99.90
9790;DHT22;4934;50.852;8.098;2023-04-10T04:58:48;2.80;99.90
9790;DHT22;4934;50.852;8.098;2023-04-10T05:01:14;2.80;99.90
9790;DHT22;4934;50.852;8.098;2023-04-10T05:03:40;2.90;99.90
9790;DHT22;4934;50.852;8.098;2023-04-10T05:06:06;3.00;99.90
9790;DHT22;4934;50.852;8.098;2023-04-10T05:08:34;3.10;99.90
9790;DHT22;4934;50.852;8.098;2023-04-10T05:10:59;3.20;99.90
9790;DHT22;4934;50.852;8.098;2023-04-10T05:13:25;3.40;99.90
9790;DHT22;4934;50.852;8.098;2023-04-10T05:15:50;3.50;99.90
9790;DHT22;4934;50.852;8.098;2023-04-10T05:18:16;3.60;99.90
9790;DHT22;4934;50.852;8.098;2023-04-10T05:20:45;3.70;99.90
9790;DHT22;4934;50.852;8.098;2023-04-10T05:23:12;3.90;99.90
9790;DHT22;4934;50.852;8.098;2023-04-10T05:25:37;4.00;99.90
9790;DHT22;4934;50.852;8.098;2023-04-10T05:28:03;4.10;99.90
9790;DHT22;4934;50.852;8.098;2023-04-10T05:30:28;4.20;99.90
9790;DHT22;4934;50.852;8.098;2023-04-10T05:32:54;4.30;99.90
9790;DHT22;4934;50.852;8.098;2023-04-10T05:35:20;4.40;99.90
9790;DHT22;4934;50.852;8.098;2023-04-10T05:37:46;4.60;99.90
9790;DHT22;4934;50.852;8.098;2023-04-10T05:40:11;4.60;99.90
9790;DHT22;4934;50.852;8.098;2023-04-10T05:42:37;4.70;99.90
9790;DHT22;4934;50.852;8.098;2023-04-10T05:45:03;4.80;99.90
9790;DHT22;4934;50.852;8.098;2023-04-10T05:47:28;4.80;99.90
9790;DHT22;4934;50.852;8.098;2023-04-10T05:49:54;4.90;99.90
9790;DHT22;4934;50.852;8.098;2023-04-10T05:52:19;4.90;99.90
9790;DHT22;4934;50.852;8.098;2023-04-10T05:54:45;4.90;99.90
9790;DHT22;4934;50.852;8.098;2023-04-10T05:57:11;5.00;99.90
9790;DHT22;4934;50.852;8.098;2023-04-10T05:59:37;5.00;99.90
9790;DHT22;4934;50.852;8.098;2023-04-10T06:02:02;5.00;99.90
9790;DHT22;4934;50.852;8.098;2023-04-10T06:04:28;5.00;99.90
9790;DHT22;4934;50.852;8.098;2023-04-10T06:06:53;5.10;99.90
9790;DHT22;4934;50.852;8.098;2023-04-10T06:09:19;5.10;99.90
9790;DHT22;4934;50.852;8.098;2023-04-10T06:11:45;5.20;99.90
9790;DHT22;4934;50.852;8.098;2023-04-10T06:14:11;5.20;99.90
9790;DHT22;4934;50.852;8.098;2023-04-10T06:16:36;5.30;99.90
9790;DHT22;4934;50.852;8.098;2023-04-10T06:19:02;5.30;99.90
9790;DHT22;4934;50.852;8.098;2023-04-10T06:21:27;5.40;99.90
9790;DHT22;4934;50.852;8.098;2023-04-10T06:23:53;5.50;99.90
9790;DHT22;4934;50.852;8.098;2023-04-10T06:26:18;5.50;99.90
9790;DHT22;4934;50.852;8.098;2023-04-10T06:28:44;5.60;99.90
9790;DHT22;4934;50.852;8.098;2023-04-10T06:31:10;5.70;99.90
9790;DHT22;4934;50.852;8.098;2023-04-10T06:33:36;5.70;99.90
9790;DHT22;4934;50.852;8.098;2023-04-10T06:36:02;5.80;99.90
9790;DHT22;4934;50.852;8.098;2023-04-10T06:38:28;5.90;99.90
9790;DHT22;4934;50.852;8.098;2023-04-10T06:40:54;5.90;99.90
9790;DHT22;4934;50.852;8.098;2023-04-10T06:43:20;5.90;99.90
9790;DHT22;4934;50.852;8.098;2023-04-10T06:45:45;6.00;99.90
9790;DHT22;4934;50.852;8.098;2023-04-10T06:48:11;6.10;99.90
9790;DHT22;4934;50.852;8.098;2023-04-10T06:50:37;6.20;99.90
9790;DHT22;4934;50.852;8.098;2023-04-10T06:53:02;6.30;99.90
9790;DHT22;4934;50.852;8.098;2023-04-10T06:55:28;6.40;99.90
9790;DHT22;4934;50.852;8.098;2023-04-10T06:57:55;6.50;99.90
9790;DHT22;4934;50.852;8.098;2023-04-10T07:00:21;6.60;99.90
9790;DHT22;4934;50.852;8.098;2023-04-10T07:02:47;6.80;99.90
9790;DHT22;4934;50.852;8.098;2023-04-10T07:05:13;6.90;99.90
9790;DHT22;4934;50.852;8.098;2023-04-10T07:07:39;7.00;99.90
9790;DHT22;4934;50.852;8.098;2023-04-10T07:10:05;7.10;99.90
9790;DHT22;4934;50.852;8.098;2023-04-10T07:12:31;7.20;99.90
9790;DHT22;4934;50.852;8.098;2023-04-10T07:14:57;7.30;99.90
9790;DHT22;4934;50.852;8.098;2023-04-10T07:17:23;7.40;99.90
9790;DHT22;4934;50.852;8.098;2023-04-10T07:19:49;7.50;99.90
9790;DHT22;4934;50.852;8.098;2023-04-10T07:22:15;7.60;99.90
9790;DHT22;4934;50.852;8.098;2023-04-10T07:24:41;7.70;99.90
9790;DHT22;4934;50.852;8.098;2023-04-10T07:27:07;7.80;99.90
9790;DHT22;4934;50.852;8.098;2023-04-10T07:29:32;7.90;99.90
9790;DHT22;4934;50.852;8.098;2023-04-10T07:31:58;8.10;99.90
9790;DHT22;4934;50.852;8.098;2023-04-10T07:34:24;8.20;99.90
9790;DHT22;4934;50.852;8.098;2023-04-10T07:36:50;8.30;99.90
9790;DHT22;4934;50.852;8.098;2023-04-10T07:39:15;8.40;99.90
9790;DHT22;4934;50.852;8.098;2023-04-10T07:41:42;8.50;99.90
9790;DHT22;4934;50.852;8.098;2023-04-10T07:44:07;8.60;99.90
9790;DHT22;4934;50.852;8.098;2023-04-10T07:46:33;8.70;99.90
9790;DHT22;4934;50.852;8.098;2023-04-10T07:48:59;8.80;99.90
9790;DHT22;4934;50.852;8.098;2023-04-10T07:51:24;9.00;99.90
9790;DHT22;4934;50.852;8.098;2023-04-10T07:53:50;9.00;99.90
9790;DHT22;4934;50.852;8.098;2023-04-10T07:56:19;9.10;99.90
9790;DHT22;4934;50.852;8.098;2023-04-10T07:58:45;9.10;99.90
9790;DHT22;4934;50.852;8.098;2023-04-10T08:01:11;9.20;99.90
9790;DHT22;4934;50.852;8.098;2023-04-10T08:03:41;9.30;99.90
9790;DHT22;4934;50.852;8.098;2023-04-10T08:06:08;9.50;99.90
9790;DHT22;4934;50.852;8.098;2023-04-10T08:08:38;9.60;99.90
9790;DHT22;4934;50.852;8.098;2023-04-10T08:11:28;9.70;99.90
9790;DHT22;4934;50.852;8.098;2023-04-10T08:13:53;9.70;99.90
9790;DHT22;4934;50.852;8.098;2023-04-10T08:16:25;10.00;99.90
9790;DHT22;4934;50.852;8.098;2023-04-10T08:18:52;10.10;99.90
9790;DHT22;4934;50.852;8.098;2023-04-10T08:21:18;10.40;99.90
9790;DHT22;4934;50.852;8.098;2023-04-10T08:23:44;10.50;99.90
9790;DHT22;4934;50.852;8.098;2023-04-10T08:26:12;10.60;99.90
9790;DHT22;4934;50.852;8.098;2023-04-10T08:28:37;10.80;99.90
9790;DHT22;4934;50.852;8.098;2023-04-10T08:31:03;11.00;99.90
9790;DHT22;4934;50.852;8.098;2023-04-10T08:33:29;11.20;99.90
9790;DHT22;4934;50.852;8.098;2023-04-10T08:35:54;11.40;99.90
9790;DHT22;4934;50.852;8.098;2023-04-10T08:38:20;11.50;99.90
9790;DHT22;4934;50.852;8.098;2023-04-10T08:40:48;11.70;99.90
9790;DHT22;4934;50.852;8.098;2023-04-10T08:43:14;11.90;99.90
9790;DHT22;4934;50.852;8.098;2023-04-10T08:45:40;12.20;99.90
9790;DHT22;4934;50.852;8.098;2023-04-10T08:48:07;12.30;99.90
9790;DHT22;4934;50.852;8.098;2023-04-10T08:50:33;12.40;99.90
9790;DHT22;4934;50.852;8.098;2023-04-10T08:53:04;12.50;99.90
9790;DHT22;4934;50.852;8.098;2023-04-10T08:55:32;12.80;99.90
9790;DHT22;4934;50.852;8.098;2023-04-10T08:57:57;12.70;99.90
9790;DHT22;4934;50.852;8.098;2023-04-10T09:00:23;12.80;99.90
9790;DHT22;4934;50.852;8.098;2023-04-10T09:02:49;13.00;99.90
9790;DHT22;4934;50.852;8.098;2023-04-10T09:05:19;13.00;99.90
9790;DHT22;4934;50.852;8.098;2023-04-10T09:07:45;13.10;99.90
9790;DHT22;4934;50.852;8.098;2023-04-10T09:10:10;13.10;99.90
9790;DHT22;4934;50.852;8.098;2023-04-10T09:12:46;13.00;99.90
9790;DHT22;4934;50.852;8.098;2023-04-10T09:15:13;13.20;99.90
9790;DHT22;4934;50.852;8.098;2023-04-10T09:17:57;13.30;99.90
9790;DHT22;4934;50.852;8.098;2023-04-10T09:20:25;13.40;99.90
9790;DHT22;4934;50.852;8.098;2023-04-10T09:22:51;13.40;99.90
9790;DHT22;4934;50.852;8.098;2023-04-10T09:25:46;13.50;99.90
9790;DHT22;4934;50.852;8.098;2023-04-10T09:28:12;13.60;99.90
9790;DHT22;4934;50.852;8.098;2023-04-10T09:30:38;13.60;99.90
9790;DHT22;4934;50.852;8.098;2023-04-10T09:35:48;13.60;99.90
9790;DHT22;4934;50.852;8.098;2023-04-10T09:38:15;13.70;99.90
9790;DHT22;4934;50.852;8.098;2023-04-10T09:40:41;13.70;99.90
9790;DHT22;4934;50.852;8.098;2023-04-10T09:43:23;13.80;99.90
9790;DHT22;4934;50.852;8.098;2023-04-10T09:45:54;13.80;99.90
9790;DHT22;4934;50.852;8.098;2023-04-10T09:48:23;14.00;99.90
9790;DHT22;4934;50.852;8.098;2023-04-10T09:50:49;14.10;99.90
9790;DHT22;4934;50.852;8.098;2023-04-10T09:53:17;14.10;99.90
9790;DHT22;4934;50.852;8.098;2023-04-10T09:55:47;14.20;99.90
9790;DHT22;4934;50.852;8.098;2023-04-10T09:58:15;14.40;99.90
9790;DHT22;4934;50.852;8.098;2023-04-10T10:00:43;14.60;99.90
9790;DHT22;4934;50.852;8.098;2023-04-10T10:03:11;14.90;99.90
9790;DHT22;4934;50.852;8.098;2023-04-10T10:05:39;15.10;99.90
9790;DHT22;4934;50.852;8.098;2023-04-10T10:08:06;15.20;99.90
9790;DHT22;4934;50.852;8.098;2023-04-10T10:10:33;15.40;99.90
9790;DHT22;4934;50.852;8.098;2023-04-10T10:13:00;15.50;99.90
9790;DHT22;4934;50.852;8.098;2023-04-10T10:15:35;15.60;99.90
9790;DHT22;4934;50.852;8.098;2023-04-10T10:20:45;16.00;99.90
9790;DHT22;4934;50.852;8.098;2023-04-10T10:23:12;16.10;99.90
9790;DHT22;4934;50.852;8.098;2023-04-10T10:25:38;16.10;99.90
9790;DHT22;4934;50.852;8.098;2023-04-10T10:28:04;16.30;99.90
9790;DHT22;4934;50.852;8.098;2023-04-10T10:30:34;16.30;99.90
9790;DHT22;4934;50.852;8.098;2023-04-10T10:33:02;16.20;99.90
9790;DHT22;4934;50.852;8.098;2023-04-10T10:35:30;16.20;99.90
9790;DHT22;4934;50.852;8.098;2023-04-10T10:37:58;16.10;99.90
9790;DHT22;4934;50.852;8.098;2023-04-10T10:40:32;16.30;99.90
9790;DHT22;4934;50.852;8.098;2023-04-10T10:43:24;16.40;99.90
9790;DHT22;4934;50.852;8.098;2023-04-10T10:46:02;16.50;99.90
9790;DHT22;4934;50.852;8.098;2023-04-10T10:48:28;16.60;99.90
9790;DHT22;4934;50.852;8.098;2023-04-10T10:50:55;16.40;99.90
9790;DHT22;4934;50.852;8.098;2023-04-10T10:53:42;16.30;99.90
9790;DHT22;4934;50.852;8.098;2023-04-10T10:58:50;16.60;99.90
9790;DHT22;4934;50.852;8.098;2023-04-10T11:01:17;16.80;99.90
9790;DHT22;4934;50.852;8.098;2023-04-10T11:03:44;16.90;99.90
9790;DHT22;4934;50.852;8.098;2023-04-10T11:06:21;17.00;99.90
9790;DHT22;4934;50.852;8.098;2023-04-10T11:08:58;17.20;99.90
9790;DHT22;4934;50.852;8.098;2023-04-10T11:11:25;17.20;99.10
9790;DHT22;4934;50.852;8.098;2023-04-10T11:16:18;17.20;98.30
9790;DHT22;4934;50.852;8.098;2023-04-10T11:28:59;17.40;98.50
9790;DHT22;4934;50.852;8.098;2023-04-10T11:31:25;17.60;98.10
9790;DHT22;4934;50.852;8.098;2023-04-10T11:36:26;17.50;97.50
9790;DHT22;4934;50.852;8.098;2023-04-10T11:39:04;17.60;99.60
9790;DHT22;4934;50.852;8.098;2023-04-10T11:41:33;17.70;97.00
9790;DHT22;4934;50.852;8.098;2023-04-10T11:44:01;17.80;97.80
9790;DHT22;4934;50.852;8.098;2023-04-10T11:46:28;17.90;97.40
9790;DHT22;4934;50.852;8.098;2023-04-10T11:49:02;18.00;98.20
9790;DHT22;4934;50.852;8.098;2023-04-10T11:51:28;18.00;94.60
9790;DHT22;4934;50.852;8.098;2023-04-10T11:54:08;17.60;95.90
9790;DHT22;4934;50.852;8.098;2023-04-10T11:56:34;17.70;95.80
9790;DHT22;4934;50.852;8.098;2023-04-10T11:59:00;17.90;95.80
9790;DHT22;4934;50.852;8.098;2023-04-10T12:01:27;18.00;96.10
9790;DHT22;4934;50.852;8.098;2023-04-10T12:03:53;18.20;95.90
9790;DHT22;4934;50.852;8.098;2023-04-10T12:06:19;18.50;94.40
9790;DHT22;4934;50.852;8.098;2023-04-10T12:08:46;18.40;93.50
9790;DHT22;4934;50.852;8.098;2023-04-10T12:11:16;18.50;93.20
9790;DHT22;4934;50.852;8.098;2023-04-10T12:13:41;18.50;94.30
9790;DHT22;4934;50.852;8.098;2023-04-10T12:16:08;18.70;92.50
9790;DHT22;4934;50.852;8.098;2023-04-10T12:18:35;18.70;91.80
9790;DHT22;4934;50.852;8.098;2023-04-10T12:21:01;18.80;93.40
9790;DHT22;4934;50.852;8.098;2023-04-10T12:23:28;18.90;92.30
9790;DHT22;4934;50.852;8.098;2023-04-10T12:26:09;18.90;90.40
9790;DHT22;4934;50.852;8.098;2023-04-10T12:31:03;19.00;89.80
9790;DHT22;4934;50.852;8.098;2023-04-10T12:33:29;19.00;91.00
9790;DHT22;4934;50.852;8.098;2023-04-10T12:35:55;18.90;91.30
9790;DHT22;4934;50.852;8.098;2023-04-10T12:38:41;19.00;90.60
9790;DHT22;4934;50.852;8.098;2023-04-10T12:41:08;19.10;90.00
9790;DHT22;4934;50.852;8.098;2023-04-10T12:43:41;19.00;89.00
9790;DHT22;4934;50.852;8.098;2023-04-10T12:46:09;18.90;89.60
9790;DHT22;4934;50.852;8.098;2023-04-10T12:48:46;18.90;84.30
9790;DHT22;4934;50.852;8.098;2023-04-10T12:51:11;18.70;85.20
9790;DHT22;4934;50.852;8.098;2023-04-10T12:53:44;18.80;82.40
9790;DHT22;4934;50.852;8.098;2023-04-10T12:56:11;18.70;84.80
9790;DHT22;4934;50.852;8.098;2023-04-10T12:58:38;18.80;82.30
9790;DHT22;4934;50.852;8.098;2023-04-10T13:01:05;18.70;82.80
9790;DHT22;4934;50.852;8.098;2023-04-10T13:03:36;18.70;79.70
9790;DHT22;4934;50.852;8.098;2023-04-10T13:06:04;18.60;83.60
9790;DHT22;4934;50.852;8.098;2023-04-10T13:08:29;18.40;81.10
9790;DHT22;4934;50.852;8.098;2023-04-10T13:10:57;18.50;80.50
9790;DHT22;4934;50.852;8.098;2023-04-10T13:13:28;18.60;81.40
9790;DHT22;4934;50.852;8.098;2023-04-10T13:15:55;18.70;80.60
9790;DHT22;4934;50.852;8.098;2023-04-10T13:18:21;18.80;79.90
9790;DHT22;4934;50.852;8.098;2023-04-10T13:20:46;18.90;77.70
9790;DHT22;4934;50.852;8.098;2023-04-10T13:23:12;18.90;77.20
9790;DHT22;4934;50.852;8.098;2023-04-10T13:25:38;18.90;71.60
9790;DHT22;4934;50.852;8.098;2023-04-10T13:28:05;18.80;76.60
9790;DHT22;4934;50.852;8.098;2023-04-10T13:30:38;18.90;76.90
9790;DHT22;4934;50.852;8.098;2023-04-10T13:33:04;19.10;76.00
9790;DHT22;4934;50.852;8.098;2023-04-10T13:35:30;19.00;71.90
9790;DHT22;4934;50.852;8.098;2023-04-10T13:37:56;18.90;72.80
9790;DHT22;4934;50.852;8.098;2023-04-10T13:40:22;19.00;73.40
9790;DHT22;4934;50.852;8.098;2023-04-10T13:42:47;18.80;70.20
9790;DHT22;4934;50.852;8.098;2023-04-10T13:45:14;18.70;70.00
9790;DHT22;4934;50.852;8.098;2023-04-10T13:47:39;18.60;69.30
9790;DHT22;4934;50.852;8.098;2023-04-10T13:50:06;18.60;67.30
9790;DHT22;4934;50.852;8.098;2023-04-10T13:52:31;18.80;68.70
9790;DHT22;4934;50.852;8.098;2023-04-10T13:54:57;18.90;67.10
9790;DHT22;4934;50.852;8.098;2023-04-10T13:57:22;18.90;67.60
9790;DHT22;4934;50.852;8.098;2023-04-10T13:59:48;19.00;66.70
9790;DHT22;4934;50.852;8.098;2023-04-10T14:02:14;19.10;64.70
9790;DHT22;4934;50.852;8.098;2023-04-10T14:04:39;19.20;61.80
9790;DHT22;4934;50.852;8.098;2023-04-10T14:07:08;19.10;63.10
9790;DHT22;4934;50.852;8.098;2023-04-10T14:09:33;19.00;62.50
9790;DHT22;4934;50.852;8.098;2023-04-10T14:11:59;19.00;60.10
9790;DHT22;4934;50.852;8.098;2023-04-10T14:14:26;18.90;61.50
9790;DHT22;4934;50.852;8.098;2023-04-10T14:16:51;18.90;60.00
9790;DHT22;4934;50.852;8.098;2023-04-10T14:19:17;18.90;59.50
9790;DHT22;4934;50.852;8.098;2023-04-10T14:21:42;18.90;60.60
9790;DHT22;4934;50.852;8.098;2023-04-10T14:24:09;18.70;59.40
9790;DHT22;4934;50.852;8.098;2023-04-10T14:26:36;18.70;59.70
9790;DHT22;4934;50.852;8.098;2023-04-10T14:29:02;18.80;59.60
9790;DHT22;4934;50.852;8.098;2023-04-10T14:31:28;18.80;59.50
9790;DHT22;4934;50.852;8.098;2023-04-10T14:33:53;19.00;60.60
9790;DHT22;4934;50.852;8.098;2023-04-10T14:36:19;18.90;57.00
9790;DHT22;4934;50.852;8.098;2023-04-10T14:38:44;19.00;59.30
9790;DHT22;4934;50.852;8.098;2023-04-10T14:41:10;19.10;58.70
9790;DHT22;4934;50.852;8.098;2023-04-10T14:43:36;19.00;58.90
9790;DHT22;4934;50.852;8.098;2023-04-10T14:46:02;18.80;59.60
9790;DHT22;4934;50.852;8.098;2023-04-10T14:48:27;18.40;58.70
9790;DHT22;4934;50.852;8.098;2023-04-10T14:50:53;18.40;59.20
9790;DHT22;4934;50.852;8.098;2023-04-10T14:53:21;18.20;59.00
9790;DHT22;4934;50.852;8.098;2023-04-10T14:55:47;18.20;59.60
9790;DHT22;4934;50.852;8.098;2023-04-10T14:58:13;18.10;60.40
9790;DHT22;4934;50.852;8.098;2023-04-10T15:00:39;18.30;62.70
9790;DHT22;4934;50.852;8.098;2023-04-10T15:03:05;18.50;62.50
9790;DHT22;4934;50.852;8.098;2023-04-10T15:05:30;18.50;61.30
9790;DHT22;4934;50.852;8.098;2023-04-10T15:07:56;18.60;61.00
9790;DHT22;4934;50.852;8.098;2023-04-10T15:10:22;18.50;60.50
9790;DHT22;4934;50.852;8.098;2023-04-10T15:12:47;18.10;61.70
9790;DHT22;4934;50.852;8.098;2023-04-10T15:15:13;18.00;62.30
9790;DHT22;4934;50.852;8.098;2023-04-10T15:17:39;18.10;63.20
9790;DHT22;4934;50.852;8.098;2023-04-10T15:20:05;18.00;61.50
9790;DHT22;4934;50.852;8.098;2023-04-10T15:22:31;17.90;62.00
9790;DHT22;4934;50.852;8.098;2023-04-10T15:24:58;17.90;61.60
9790;DHT22;4934;50.852;8.098;2023-04-10T15:27:24;17.80;62.80
9790;DHT22;4934;50.852;8.098;2023-04-10T15:29:50;17.60;63.50
9790;DHT22;4934;50.852;8.098;2023-04-10T15:32:16;17.40;62.90
9790;DHT22;4934;50.852;8.098;2023-04-10T15:34:43;17.30;63.00
9790;DHT22;4934;50.852;8.098;2023-04-10T15:37:09;17.40;64.90
9790;DHT22;4934;50.852;8.098;2023-04-10T15:39:34;17.50;65.50
9790;DHT22;4934;50.852;8.098;2023-04-10T15:42:02;17.50;65.40
9790;DHT22;4934;50.852;8.098;2023-04-10T15:44:30;17.30;65.10
9790;DHT22;4934;50.852;8.098;2023-04-10T15:46:56;17.20;65.80
9790;DHT22;4934;50.852;8.098;2023-04-10T15:49:21;17.10;66.40
9790;DHT22;4934;50.852;8.098;2023-04-10T15:51:47;17.00;66.30
9790;DHT22;4934;50.852;8.098;2023-04-10T15:54:13;16.90;66.60
9790;DHT22;4934;50.852;8.098;2023-04-10T15:56:38;16.70;65.70
9790;DHT22;4934;50.852;8.098;2023-04-10T15:59:05;16.80;66.80
9790;DHT22;4934;50.852;8.098;2023-04-10T16:01:31;16.80;67.00
9790;DHT22;4934;50.852;8.098;2023-04-10T16:03:56;16.60;67.00
9790;DHT22;4934;50.852;8.098;2023-04-10T16:06:22;16.70;69.40
9790;DHT22;4934;50.852;8.098;2023-04-10T16:08:51;16.60;67.50
9790;DHT22;4934;50.852;8.098;2023-04-10T16:11:16;16.60;67.90
9790;DHT22;4934;50.852;8.098;2023-04-10T16:13:42;16.50;67.90
9790;DHT22;4934;50.852;8.098;2023-04-10T16:16:13;16.40;69.20
9790;DHT22;4934;50.852;8.098;2023-04-10T16:18:39;16.40;68.30
9790;DHT22;4934;50.852;8.098;2023-04-10T16:21:07;16.40;68.00
9790;DHT22;4934;50.852;8.098;2023-04-10T16:23:33;16.30;68.00
9790;DHT22;4934;50.852;8.098;2023-04-10T16:25:58;16.10;68.30
9790;DHT22;4934;50.852;8.098;2023-04-10T16:28:25;16.10;69.70
9790;DHT22;4934;50.852;8.098;2023-04-10T16:30:51;16.10;69.40
9790;DHT22;4934;50.852;8.098;2023-04-10T16:33:16;16.10;70.10
9790;DHT22;4934;50.852;8.098;2023-04-10T16:35:42;16.00;69.60
9790;DHT22;4934;50.852;8.098;2023-04-10T16:38:08;15.90;70.10
9790;DHT22;4934;50.852;8.098;2023-04-10T16:40:34;15.90;71.10
9790;DHT22;4934;50.852;8.098;2023-04-10T16:43:01;15.90;71.60
9790;DHT22;4934;50.852;8.098;2023-04-10T16:45:27;15.90;72.70
9790;DHT22;4934;50.852;8.098;2023-04-10T16:47:53;16.00;69.70
9790;DHT22;4934;50.852;8.098;2023-04-10T16:50:19;16.00;70.00